sensor_id;sensor_type;location;lat;lon;timestamp;P1;durP1;ratioP1;P2;durP2;ratioP2
59950;SDS011;45812;53.540;9.774;2024-02-26T00:01:00;8.45;;;4.30;;
59950;SDS011;45812;53.540;9.774;2024-02-26T00:03:25;8.95;;;4.30;;
59950;SDS011;45812;53.540;9.774;2024-02-26T00:05:50;8.90;;;3.97;;
59950;SDS011;45812;53.540;9.774;2024-02-26T00:08:16;8.05;;;4.20;;
59950;SDS011;45812;53.540;9.774;2024-02-26T00:10:41;7.75;;;4.00;;
59950;SDS011;45812;53.540;9.774;2024-02-26T00:13:07;7.78;;;4.07;;
59950;SDS011;45812;53.540;9.774;2024-02-26T00:15:32;8.05;;;4.28;;
59950;SDS011;45812;53.540;9.774;2024-02-26T00:18:00;4.72;;;3.70;;
59950;SDS011;45812;53.540;9.774;2024-02-26T00:20:25;7.60;;;4.30;;
59950;SDS011;45812;53.540;9.774;2024-02-26T00:22:51;8.63;;;4.25;;
59950;SDS011;45812;53.540;9.774;2024-02-26T00:25:16;5.90;;;3.42;;
59950;SDS011;45812;53.540;9.774;2024-02-26T00:27:41;8.23;;;3.85;;
59950;SDS011;45812;53.540;9.774;2024-02-26T00:30:08;6.28;;;3.40;;
59950;SDS011;45812;53.540;9.774;2024-02-26T00:32:34;5.40;;;3.58;;
59950;SDS011;45812;53.540;9.774;2024-02-26T00:34:59;7.40;;;4.07;;
59950;SDS011;45812;53.540;9.774;2024-02-26T00:37:24;11.70;;;4.43;;
59950;SDS011;45812;53.540;9.774;2024-02-26T00:39:50;7.85;;;4.40;;
59950;SDS011;45812;53.540;9.774;2024-02-26T00:42:15;8.10;;;3.67;;
59950;SDS011;45812;53.540;9.774;2024-02-26T00:44:40;6.95;;;3.70;;
59950;SDS011;45812;53.540;9.774;2024-02-26T00:47:05;6.60;;;3.75;;
59950;SDS011;45812;53.540;9.774;2024-02-26T00:49:31;4.25;;;3.50;;
59950;SDS011;45812;53.540;9.774;2024-02-26T00:51:56;8.23;;;3.80;;
59950;SDS011;45812;53.540;9.774;2024-02-26T00:54:21;7.03;;;4.03;;
59950;SDS011;45812;53.540;9.774;2024-02-26T00:56:46;4.78;;;3.38;;
59950;SDS011;45812;53.540;9.774;2024-02-26T00:59:12;6.35;;;3.63;;
59950;SDS011;45812;53.540;9.774;2024-02-26T01:01:37;8.52;;;4.55;;
59950;SDS011;45812;53.540;9.774;2024-02-26T01:04:02;8.55;;;4.10;;
59950;SDS011;45812;53.540;9.774;2024-02-26T01:06:28;7.15;;;3.75;;
59950;SDS011;45812;53.540;9.774;2024-02-26T01:08:53;4.35;;;3.95;;
59950;SDS011;45812;53.540;9.774;2024-02-26T01:11:18;6.72;;;3.45;;
59950;SDS011;45812;53.540;9.774;2024-02-26T01:13:44;4.53;;;3.65;;
59950;SDS011;45812;53.540;9.774;2024-02-26T01:16:09;5.95;;;3.55;;
59950;SDS011;45812;53.540;9.774;2024-02-26T01:18:35;6.78;;;3.83;;
59950;SDS011;45812;53.540;9.774;2024-02-26T01:21:01;7.50;;;4.70;;
59950;SDS011;45812;53.540;9.774;2024-02-26T01:23:26;5.30;;;3.58;;
59950;SDS011;45812;53.540;9.774;2024-02-26T01:25:51;5.63;;;3.60;;
59950;SDS011;45812;53.540;9.774;2024-02-26T01:28:17;9.02;;;4.03;;
59950;SDS011;45812;53.540;9.774;2024-02-26T01:30:42;8.25;;;4.30;;
59950;SDS011;45812;53.540;9.774;2024-02-26T01:33:07;11.02;;;4.95;;
59950;SDS011;45812;53.540;9.774;2024-02-26T01:35:32;5.47;;;3.42;;
59950;SDS011;45812;53.540;9.774;2024-02-26T01:37:57;5.50;;;3.80;;
59950;SDS011;45812;53.540;9.774;2024-02-26T01:40:26;6.07;;;3.50;;
59950;SDS011;45812;53.540;9.774;2024-02-26T01:42:52;8.23;;;3.92;;
59950;SDS011;45812;53.540;9.774;2024-02-26T01:45:17;5.53;;;3.30;;
59950;SDS011;45812;53.540;9.774;2024-02-26T01:47:52;5.05;;;3.30;;
59950;SDS011;45812;53.540;9.774;2024-02-26T01:50:18;8.23;;;4.32;;
59950;SDS011;45812;53.540;9.774;2024-02-26T01:52:45;21.00;;;4.43;;
59950;SDS011;45812;53.540;9.774;2024-02-26T01:55:12;12.20;;;4.22;;
59950;SDS011;45812;53.540;9.774;2024-02-26T01:57:39;6.07;;;3.67;;
59950;SDS011;45812;53.540;9.774;2024-02-26T02:00:04;5.75;;;3.58;;
59950;SDS011;45812;53.540;9.774;2024-02-26T02:02:32;14.73;;;4.22;;
59950;SDS011;45812;53.540;9.774;2024-02-26T02:04:57;8.10;;;4.43;;
59950;SDS011;45812;53.540;9.774;2024-02-26T02:07:23;9.43;;;4.88;;
59950;SDS011;45812;53.540;9.774;2024-02-26T02:09:49;7.82;;;4.38;;
59950;SDS011;45812;53.540;9.774;2024-02-26T02:12:15;8.02;;;4.22;;
59950;SDS011;45812;53.540;9.774;2024-02-26T02:14:40;8.68;;;3.92;;
59950;SDS011;45812;53.540;9.774;2024-02-26T02:17:06;6.03;;;4.22;;
59950;SDS011;45812;53.540;9.774;2024-02-26T02:19:32;5.22;;;3.90;;
59950;SDS011;45812;53.540;9.774;2024-02-26T02:21:57;5.43;;;3.58;;
59950;SDS011;45812;53.540;9.774;2024-02-26T02:24:22;7.90;;;4.35;;
59950;SDS011;45812;53.540;9.774;2024-02-26T02:26:47;7.55;;;4.15;;
59950;SDS011;45812;53.540;9.774;2024-02-26T02:29:13;7.93;;;3.97;;
59950;SDS011;45812;53.540;9.774;2024-02-26T02:31:39;9.48;;;4.38;;
59950;SDS011;45812;53.540;9.774;2024-02-26T02:34:05;5.60;;;3.97;;
59950;SDS011;45812;53.540;9.774;2024-02-26T02:36:30;8.48;;;4.07;;
59950;SDS011;45812;53.540;9.774;2024-02-26T02:38:56;7.22;;;4.13;;
59950;SDS011;45812;53.540;9.774;2024-02-26T02:41:21;8.82;;;4.13;;
59950;SDS011;45812;53.540;9.774;2024-02-26T02:43:46;11.45;;;4.80;;
59950;SDS011;45812;53.540;9.774;2024-02-26T02:46:12;11.07;;;4.90;;
59950;SDS011;45812;53.540;9.774;2024-02-26T02:48:37;9.55;;;4.45;;
59950;SDS011;45812;53.540;9.774;2024-02-26T02:51:03;11.88;;;5.35;;
59950;SDS011;45812;53.540;9.774;2024-02-26T02:53:29;8.93;;;5.28;;
59950;SDS011;45812;53.540;9.774;2024-02-26T02:55:55;10.20;;;5.32;;
59950;SDS011;45812;53.540;9.774;2024-02-26T02:58:20;11.73;;;6.35;;
59950;SDS011;45812;53.540;9.774;2024-02-26T03:00:45;9.88;;;4.90;;
59950;SDS011;45812;53.540;9.774;2024-02-26T03:03:10;13.23;;;6.03;;
59950;SDS011;45812;53.540;9.774;2024-02-26T03:05:35;10.32;;;5.35;;
59950;SDS011;45812;53.540;9.774;2024-02-26T03:08:01;10.98;;;5.43;;
59950;SDS011;45812;53.540;9.774;2024-02-26T03:10:26;15.35;;;6.40;;
59950;SDS011;45812;53.540;9.774;2024-02-26T03:12:51;11.75;;;5.68;;
59950;SDS011;45812;53.540;9.774;2024-02-26T03:15:16;14.68;;;7.40;;
59950;SDS011;45812;53.540;9.774;2024-02-26T03:17:42;15.73;;;7.18;;
59950;SDS011;45812;53.540;9.774;2024-02-26T03:20:08;15.45;;;7.57;;
59950;SDS011;45812;53.540;9.774;2024-02-26T03:22:34;15.07;;;7.75;;
59950;SDS011;45812;53.540;9.774;2024-02-26T03:24:59;18.40;;;8.68;;
59950;SDS011;45812;53.540;9.774;2024-02-26T03:27:25;14.57;;;7.20;;
59950;SDS011;45812;53.540;9.774;2024-02-26T03:29:50;14.02;;;6.60;;
59950;SDS011;45812;53.540;9.774;2024-02-26T03:32:16;17.23;;;7.35;;
59950;SDS011;45812;53.540;9.774;2024-02-26T03:34:41;18.27;;;8.55;;
59950;SDS011;45812;53.540;9.774;2024-02-26T03:37:06;18.58;;;8.25;;
59950;SDS011;45812;53.540;9.774;2024-02-26T03:39:34;13.57;;;6.28;;
59950;SDS011;45812;53.540;9.774;2024-02-26T03:41:59;16.67;;;7.65;;
59950;SDS011;45812;53.540;9.774;2024-02-26T03:44:24;15.95;;;7.20;;
59950;SDS011;45812;53.540;9.774;2024-02-26T03:46:50;18.77;;;8.00;;
59950;SDS011;45812;53.540;9.774;2024-02-26T03:49:15;16.27;;;7.75;;
59950;SDS011;45812;53.540;9.774;2024-02-26T03:51:40;20.20;;;8.18;;
59950;SDS011;45812;53.540;9.774;2024-02-26T03:54:05;14.30;;;7.15;;
59950;SDS011;45812;53.540;9.774;2024-02-26T03:56:31;15.77;;;6.75;;
59950;SDS011;45812;53.540;9.774;2024-02-26T03:58:56;16.10;;;6.68;;
59950;SDS011;45812;53.540;9.774;2024-02-26T04:01:21;14.52;;;6.68;;
59950;SDS011;45812;53.540;9.774;2024-02-26T04:03:47;16.25;;;7.05;;
59950;SDS011;45812;53.540;9.774;2024-02-26T04:06:12;14.32;;;6.47;;
59950;SDS011;45812;53.540;9.774;2024-02-26T04:08:42;14.52;;;6.47;;
59950;SDS011;45812;53.540;9.774;2024-02-26T04:11:08;13.40;;;5.72;;
59950;SDS011;45812;53.540;9.774;2024-02-26T04:13:33;10.77;;;5.32;;
59950;SDS011;45812;53.540;9.774;2024-02-26T04:15:59;11.80;;;6.13;;
59950;SDS011;45812;53.540;9.774;2024-02-26T04:18:26;10.88;;;5.63;;
59950;SDS011;45812;53.540;9.774;2024-02-26T04:20:52;14.02;;;6.60;;
59950;SDS011;45812;53.540;9.774;2024-02-26T04:23:17;15.88;;;6.20;;
59950;SDS011;45812;53.540;9.774;2024-02-26T04:25:42;9.68;;;5.53;;
59950;SDS011;45812;53.540;9.774;2024-02-26T04:28:08;12.50;;;5.18;;
59950;SDS011;45812;53.540;9.774;2024-02-26T04:30:33;9.52;;;4.85;;
59950;SDS011;45812;53.540;9.774;2024-02-26T04:32:58;9.57;;;4.82;;
59950;SDS011;45812;53.540;9.774;2024-02-26T04:35:23;9.77;;;4.60;;
59950;SDS011;45812;53.540;9.774;2024-02-26T04:37:49;9.15;;;4.97;;
59950;SDS011;45812;53.540;9.774;2024-02-26T04:40:14;10.32;;;4.95;;
59950;SDS011;45812;53.540;9.774;2024-02-26T04:42:39;8.98;;;4.72;;
59950;SDS011;45812;53.540;9.774;2024-02-26T04:45:05;8.55;;;4.95;;
59950;SDS011;45812;53.540;9.774;2024-02-26T04:47:32;10.68;;;4.93;;
59950;SDS011;45812;53.540;9.774;2024-02-26T04:49:57;8.50;;;4.85;;
59950;SDS011;45812;53.540;9.774;2024-02-26T04:52:22;8.15;;;4.38;;
59950;SDS011;45812;53.540;9.774;2024-02-26T04:54:47;6.80;;;4.43;;
59950;SDS011;45812;53.540;9.774;2024-02-26T04:57:13;10.23;;;5.20;;
59950;SDS011;45812;53.540;9.774;2024-02-26T04:59:38;8.77;;;4.75;;
59950;SDS011;45812;53.540;9.774;2024-02-26T05:02:03;7.93;;;3.70;;
59950;SDS011;45812;53.540;9.774;2024-02-26T05:04:28;10.15;;;4.63;;
59950;SDS011;45812;53.540;9.774;2024-02-26T05:06:54;8.48;;;4.55;;
59950;SDS011;45812;53.540;9.774;2024-02-26T05:09:20;7.60;;;4.78;;
59950;SDS011;45812;53.540;9.774;2024-02-26T05:11:45;6.95;;;4.47;;
59950;SDS011;45812;53.540;9.774;2024-02-26T05:14:10;8.13;;;4.43;;
59950;SDS011;45812;53.540;9.774;2024-02-26T05:16:36;8.52;;;4.65;;
59950;SDS011;45812;53.540;9.774;2024-02-26T05:19:01;10.15;;;4.72;;
59950;SDS011;45812;53.540;9.774;2024-02-26T05:21:26;8.90;;;4.38;;
59950;SDS011;45812;53.540;9.774;2024-02-26T05:23:51;9.85;;;4.90;;
59950;SDS011;45812;53.540;9.774;2024-02-26T05:26:20;9.32;;;4.65;;
59950;SDS011;45812;53.540;9.774;2024-02-26T05:28:46;7.97;;;4.07;;
59950;SDS011;45812;53.540;9.774;2024-02-26T05:31:12;12.80;;;5.55;;
59950;SDS011;45812;53.540;9.774;2024-02-26T05:33:38;8.20;;;4.85;;
59950;SDS011;45812;53.540;9.774;2024-02-26T05:36:04;12.60;;;5.45;;
59950;SDS011;45812;53.540;9.774;2024-02-26T05:38:30;8.30;;;4.32;;
59950;SDS011;45812;53.540;9.774;2024-02-26T05:40:56;13.30;;;6.22;;
59950;SDS011;45812;53.540;9.774;2024-02-26T05:43:22;19.42;;;8.90;;
59950;SDS011;45812;53.540;9.774;2024-02-26T05:45:47;18.23;;;7.68;;
59950;SDS011;45812;53.540;9.774;2024-02-26T05:48:12;16.40;;;7.28;;
59950;SDS011;45812;53.540;9.774;2024-02-26T05:50:37;16.38;;;7.50;;
59950;SDS011;45812;53.540;9.774;2024-02-26T05:53:03;15.98;;;7.72;;
59950;SDS011;45812;53.540;9.774;2024-02-26T05:55:28;21.45;;;9.00;;
59950;SDS011;45812;53.540;9.774;2024-02-26T05:57:53;18.00;;;8.25;;
59950;SDS011;45812;53.540;9.774;2024-02-26T06:00:19;23.15;;;10.30;;
59950;SDS011;45812;53.540;9.774;2024-02-26T06:02:44;22.77;;;9.38;;
59950;SDS011;45812;53.540;9.774;2024-02-26T06:05:09;24.73;;;10.20;;
59950;SDS011;45812;53.540;9.774;2024-02-26T06:07:35;23.60;;;10.25;;
59950;SDS011;45812;53.540;9.774;2024-02-26T06:10:00;25.35;;;9.63;;
59950;SDS011;45812;53.540;9.774;2024-02-26T06:12:27;27.83;;;11.25;;
59950;SDS011;45812;53.540;9.774;2024-02-26T06:14:53;25.42;;;10.15;;
59950;SDS011;45812;53.540;9.774;2024-02-26T06:17:18;26.08;;;10.65;;
59950;SDS011;45812;53.540;9.774;2024-02-26T06:19:44;25.13;;;10.65;;
59950;SDS011;45812;53.540;9.774;2024-02-26T06:22:09;24.42;;;10.40;;
59950;SDS011;45812;53.540;9.774;2024-02-26T06:24:34;23.15;;;10.18;;
59950;SDS011;45812;53.540;9.774;2024-02-26T06:26:59;23.10;;;10.95;;
59950;SDS011;45812;53.540;9.774;2024-02-26T06:29:25;23.30;;;10.05;;
59950;SDS011;45812;53.540;9.774;2024-02-26T06:31:50;26.25;;;10.95;;
59950;SDS011;45812;53.540;9.774;2024-02-26T06:34:15;25.85;;;11.38;;
59950;SDS011;45812;53.540;9.774;2024-02-26T06:36:41;24.25;;;10.77;;
59950;SDS011;45812;53.540;9.774;2024-02-26T06:39:06;27.45;;;11.40;;
59950;SDS011;45812;53.540;9.774;2024-02-26T06:41:31;26.42;;;11.35;;
59950;SDS011;45812;53.540;9.774;2024-02-26T06:43:56;21.77;;;9.93;;
59950;SDS011;45812;53.540;9.774;2024-02-26T06:46:22;26.15;;;10.93;;
59950;SDS011;45812;53.540;9.774;2024-02-26T06:48:48;24.45;;;10.93;;
59950;SDS011;45812;53.540;9.774;2024-02-26T06:51:14;23.65;;;10.18;;
59950;SDS011;45812;53.540;9.774;2024-02-26T06:53:39;26.02;;;11.35;;
59950;SDS011;45812;53.540;9.774;2024-02-26T06:56:04;23.70;;;10.95;;
59950;SDS011;45812;53.540;9.774;2024-02-26T06:58:30;25.30;;;10.95;;
59950;SDS011;45812;53.540;9.774;2024-02-26T07:00:55;21.92;;;9.90;;
59950;SDS011;45812;53.540;9.774;2024-02-26T07:03:20;24.50;;;9.95;;
59950;SDS011;45812;53.540;9.774;2024-02-26T07:05:47;23.38;;;9.90;;
59950;SDS011;45812;53.540;9.774;2024-02-26T07:08:13;25.77;;;10.85;;
59950;SDS011;45812;53.540;9.774;2024-02-26T07:10:38;21.90;;;9.85;;
59950;SDS011;45812;53.540;9.774;2024-02-26T07:13:03;22.80;;;9.30;;
59950;SDS011;45812;53.540;9.774;2024-02-26T07:15:29;23.95;;;10.05;;
59950;SDS011;45812;53.540;9.774;2024-02-26T07:17:54;22.00;;;10.35;;
59950;SDS011;45812;53.540;9.774;2024-02-26T07:20:19;23.33;;;9.50;;
59950;SDS011;45812;53.540;9.774;2024-02-26T07:22:44;23.67;;;9.57;;
59950;SDS011;45812;53.540;9.774;2024-02-26T07:25:10;20.70;;;9.32;;
59950;SDS011;45812;53.540;9.774;2024-02-26T07:27:38;26.75;;;9.13;;
59950;SDS011;45812;53.540;9.774;2024-02-26T07:30:04;21.20;;;9.30;;
59950;SDS011;45812;53.540;9.774;2024-02-26T07:32:30;22.23;;;9.88;;
59950;SDS011;45812;53.540;9.774;2024-02-26T07:34:55;22.02;;;9.45;;
59950;SDS011;45812;53.540;9.774;2024-02-26T07:37:20;19.50;;;9.35;;
59950;SDS011;45812;53.540;9.774;2024-02-26T07:39:45;21.05;;;8.77;;
59950;SDS011;45812;53.540;9.774;2024-02-26T07:42:11;21.15;;;9.15;;
59950;SDS011;45812;53.540;9.774;2024-02-26T07:44:36;23.67;;;9.68;;
59950;SDS011;45812;53.540;9.774;2024-02-26T07:47:01;20.38;;;9.45;;
59950;SDS011;45812;53.540;9.774;2024-02-26T07:49:27;20.88;;;9.05;;
59950;SDS011;45812;53.540;9.774;2024-02-26T07:51:53;20.52;;;9.63;;
59950;SDS011;45812;53.540;9.774;2024-02-26T07:54:18;20.50;;;9.05;;
59950;SDS011;45812;53.540;9.774;2024-02-26T07:56:44;19.85;;;9.20;;
59950;SDS011;45812;53.540;9.774;2024-02-26T07:59:09;24.52;;;9.85;;
59950;SDS011;45812;53.540;9.774;2024-02-26T08:01:34;20.63;;;9.57;;
59950;SDS011;45812;53.540;9.774;2024-02-26T08:04:00;20.48;;;9.55;;
59950;SDS011;45812;53.540;9.774;2024-02-26T08:06:25;24.17;;;9.98;;
59950;SDS011;45812;53.540;9.774;2024-02-26T08:08:50;24.67;;;9.55;;
59950;SDS011;45812;53.540;9.774;2024-02-26T08:11:16;24.00;;;10.13;;
59950;SDS011;45812;53.540;9.774;2024-02-26T08:13:41;23.40;;;10.55;;
59950;SDS011;45812;53.540;9.774;2024-02-26T08:16:07;24.52;;;9.65;;
59950;SDS011;45812;53.540;9.774;2024-02-26T08:18:32;26.85;;;10.07;;
59950;SDS011;45812;53.540;9.774;2024-02-26T08:20:57;24.30;;;10.60;;
59950;SDS011;45812;53.540;9.774;2024-02-26T08:23:22;28.90;;;11.50;;
59950;SDS011;45812;53.540;9.774;2024-02-26T08:25:48;27.58;;;11.73;;
59950;SDS011;45812;53.540;9.774;2024-02-26T08:28:14;26.80;;;11.38;;
59950;SDS011;45812;53.540;9.774;2024-02-26T08:30:39;26.35;;;11.77;;
59950;SDS011;45812;53.540;9.774;2024-02-26T08:33:04;24.45;;;9.88;;
59950;SDS011;45812;53.540;9.774;2024-02-26T08:35:29;24.70;;;10.55;;
59950;SDS011;45812;53.540;9.774;2024-02-26T08:37:55;23.00;;;9.63;;
59950;SDS011;45812;53.540;9.774;2024-02-26T08:40:20;25.83;;;11.05;;
59950;SDS011;45812;53.540;9.774;2024-02-26T08:42:45;26.23;;;11.20;;
59950;SDS011;45812;53.540;9.774;2024-02-26T08:45:10;26.90;;;10.90;;
59950;SDS011;45812;53.540;9.774;2024-02-26T08:47:36;24.77;;;11.52;;
59950;SDS011;45812;53.540;9.774;2024-02-26T08:50:01;24.63;;;9.73;;
59950;SDS011;45812;53.540;9.774;2024-02-26T08:52:27;26.60;;;10.25;;
59950;SDS011;45812;53.540;9.774;2024-02-26T08:54:52;26.27;;;11.73;;
59950;SDS011;45812;53.540;9.774;2024-02-26T08:57:17;22.50;;;9.10;;
59950;SDS011;45812;53.540;9.774;2024-02-26T08:59:43;28.13;;;11.13;;
59950;SDS011;45812;53.540;9.774;2024-02-26T09:02:08;24.63;;;10.32;;
59950;SDS011;45812;53.540;9.774;2024-02-26T09:04:34;23.88;;;9.50;;
59950;SDS011;45812;53.540;9.774;2024-02-26T09:07:00;25.45;;;10.73;;
59950;SDS011;45812;53.540;9.774;2024-02-26T09:09:25;26.67;;;10.82;;
59950;SDS011;45812;53.540;9.774;2024-02-26T09:11:51;25.95;;;10.60;;
59950;SDS011;45812;53.540;9.774;2024-02-26T09:14:17;22.80;;;9.35;;
59950;SDS011;45812;53.540;9.774;2024-02-26T09:16:42;27.23;;;10.57;;
59950;SDS011;45812;53.540;9.774;2024-02-26T09:19:08;27.20;;;10.02;;
59950;SDS011;45812;53.540;9.774;2024-02-26T09:21:33;27.75;;;11.57;;
59950;SDS011;45812;53.540;9.774;2024-02-26T09:23:58;22.85;;;10.38;;
59950;SDS011;45812;53.540;9.774;2024-02-26T09:26:23;26.25;;;11.05;;
59950;SDS011;45812;53.540;9.774;2024-02-26T09:28:49;26.25;;;10.63;;
59950;SDS011;45812;53.540;9.774;2024-02-26T09:31:14;26.90;;;11.25;;
59950;SDS011;45812;53.540;9.774;2024-02-26T09:33:41;26.55;;;10.77;;
59950;SDS011;45812;53.540;9.774;2024-02-26T09:36:06;26.05;;;11.23;;
59950;SDS011;45812;53.540;9.774;2024-02-26T09:38:31;26.92;;;11.15;;
59950;SDS011;45812;53.540;9.774;2024-02-26T09:41:01;25.08;;;11.23;;
59950;SDS011;45812;53.540;9.774;2024-02-26T09:43:27;25.10;;;9.65;;
59950;SDS011;45812;53.540;9.774;2024-02-26T09:45:59;26.40;;;12.02;;
59950;SDS011;45812;53.540;9.774;2024-02-26T09:48:25;24.27;;;10.75;;
59950;SDS011;45812;53.540;9.774;2024-02-26T09:50:50;25.20;;;10.50;;
59950;SDS011;45812;53.540;9.774;2024-02-26T09:53:16;24.02;;;10.65;;
59950;SDS011;45812;53.540;9.774;2024-02-26T09:55:42;25.30;;;10.25;;
59950;SDS011;45812;53.540;9.774;2024-02-26T09:58:07;23.92;;;10.95;;
59950;SDS011;45812;53.540;9.774;2024-02-26T10:00:32;23.65;;;9.77;;
59950;SDS011;45812;53.540;9.774;2024-02-26T10:03:05;24.70;;;10.43;;
59950;SDS011;45812;53.540;9.774;2024-02-26T10:05:34;24.45;;;9.50;;
59950;SDS011;45812;53.540;9.774;2024-02-26T10:08:00;23.33;;;9.85;;
59950;SDS011;45812;53.540;9.774;2024-02-26T10:10:28;21.65;;;9.57;;
59950;SDS011;45812;53.540;9.774;2024-02-26T10:12:54;25.05;;;10.75;;
59950;SDS011;45812;53.540;9.774;2024-02-26T10:15:19;24.02;;;9.57;;
59950;SDS011;45812;53.540;9.774;2024-02-26T10:17:45;23.52;;;8.93;;
59950;SDS011;45812;53.540;9.774;2024-02-26T10:20:16;24.02;;;9.82;;
59950;SDS011;45812;53.540;9.774;2024-02-26T10:22:43;21.42;;;9.98;;
59950;SDS011;45812;53.540;9.774;2024-02-26T10:25:09;23.95;;;9.50;;
59950;SDS011;45812;53.540;9.774;2024-02-26T10:27:34;23.20;;;9.73;;
59950;SDS011;45812;53.540;9.774;2024-02-26T10:30:19;18.92;;;8.50;;
59950;SDS011;45812;53.540;9.774;2024-02-26T10:32:46;20.45;;;8.88;;
59950;SDS011;45812;53.540;9.774;2024-02-26T10:35:13;17.75;;;8.57;;
59950;SDS011;45812;53.540;9.774;2024-02-26T10:37:39;21.52;;;9.77;;
59950;SDS011;45812;53.540;9.774;2024-02-26T10:40:05;22.30;;;10.25;;
59950;SDS011;45812;53.540;9.774;2024-02-26T10:42:34;20.17;;;8.95;;
59950;SDS011;45812;53.540;9.774;2024-02-26T10:44:59;19.05;;;8.75;;
59950;SDS011;45812;53.540;9.774;2024-02-26T10:47:26;17.92;;;8.15;;
59950;SDS011;45812;53.540;9.774;2024-02-26T10:49:52;19.98;;;8.93;;
59950;SDS011;45812;53.540;9.774;2024-02-26T10:52:18;20.27;;;8.90;;
59950;SDS011;45812;53.540;9.774;2024-02-26T10:54:44;17.85;;;7.80;;
59950;SDS011;45812;53.540;9.774;2024-02-26T10:57:12;17.75;;;7.95;;
59950;SDS011;45812;53.540;9.774;2024-02-26T10:59:39;18.77;;;8.65;;
59950;SDS011;45812;53.540;9.774;2024-02-26T11:02:06;19.75;;;8.43;;
59950;SDS011;45812;53.540;9.774;2024-02-26T11:04:34;17.27;;;7.60;;
59950;SDS011;45812;53.540;9.774;2024-02-26T11:07:00;17.05;;;7.75;;
59950;SDS011;45812;53.540;9.774;2024-02-26T11:09:26;16.42;;;7.13;;
59950;SDS011;45812;53.540;9.774;2024-02-26T11:11:52;20.13;;;8.63;;
59950;SDS011;45812;53.540;9.774;2024-02-26T11:14:19;18.92;;;8.00;;
59950;SDS011;45812;53.540;9.774;2024-02-26T11:16:46;15.10;;;6.65;;
59950;SDS011;45812;53.540;9.774;2024-02-26T11:19:12;14.13;;;6.97;;
59950;SDS011;45812;53.540;9.774;2024-02-26T11:21:38;14.55;;;7.50;;
59950;SDS011;45812;53.540;9.774;2024-02-26T11:24:07;13.38;;;7.07;;
59950;SDS011;45812;53.540;9.774;2024-02-26T11:26:34;18.75;;;8.20;;
59950;SDS011;45812;53.540;9.774;2024-02-26T11:29:05;14.55;;;7.00;;
59950;SDS011;45812;53.540;9.774;2024-02-26T11:31:35;15.20;;;7.50;;
59950;SDS011;45812;53.540;9.774;2024-02-26T11:34:02;12.85;;;6.82;;
59950;SDS011;45812;53.540;9.774;2024-02-26T11:36:28;11.52;;;6.82;;
59950;SDS011;45812;53.540;9.774;2024-02-26T11:38:53;15.75;;;7.95;;
59950;SDS011;45812;53.540;9.774;2024-02-26T11:41:20;15.48;;;7.50;;
59950;SDS011;45812;53.540;9.774;2024-02-26T11:43:49;15.63;;;7.30;;
59950;SDS011;45812;53.540;9.774;2024-02-26T11:51:53;12.75;;;6.90;;
59950;SDS011;45812;53.540;9.774;2024-02-26T11:59:55;16.13;;;7.80;;
59950;SDS011;45812;53.540;9.774;2024-02-26T12:05:19;16.23;;;7.53;;
59950;SDS011;45812;53.540;9.774;2024-02-26T12:07:49;13.60;;;6.63;;
59950;SDS011;45812;53.540;9.774;2024-02-26T12:10:22;17.13;;;7.55;;
59950;SDS011;45812;53.540;9.774;2024-02-26T12:12:55;14.27;;;7.43;;
59950;SDS011;45812;53.540;9.774;2024-02-26T12:15:24;16.15;;;7.05;;
59950;SDS011;45812;53.540;9.774;2024-02-26T12:17:55;13.63;;;7.70;;
59950;SDS011;45812;53.540;9.774;2024-02-26T12:20:21;12.50;;;7.28;;
59950;SDS011;45812;53.540;9.774;2024-02-26T12:22:46;12.15;;;6.82;;
59950;SDS011;45812;53.540;9.774;2024-02-26T12:25:13;15.30;;;6.95;;
59950;SDS011;45812;53.540;9.774;2024-02-26T12:27:39;13.30;;;7.07;;
59950;SDS011;45812;53.540;9.774;2024-02-26T12:30:04;13.82;;;7.03;;
59950;SDS011;45812;53.540;9.774;2024-02-26T12:32:32;13.95;;;6.90;;
59950;SDS011;45812;53.540;9.774;2024-02-26T12:34:58;12.77;;;6.82;;
59950;SDS011;45812;53.540;9.774;2024-02-26T12:37:24;12.93;;;6.60;;
59950;SDS011;45812;53.540;9.774;2024-02-26T12:39:50;13.80;;;6.95;;
59950;SDS011;45812;53.540;9.774;2024-02-26T12:42:16;13.52;;;6.35;;
59950;SDS011;45812;53.540;9.774;2024-02-26T12:44:41;16.35;;;7.47;;
59950;SDS011;45812;53.540;9.774;2024-02-26T12:47:06;16.08;;;7.03;;
59950;SDS011;45812;53.540;9.774;2024-02-26T12:49:31;15.15;;;7.55;;
59950;SDS011;45812;53.540;9.774;2024-02-26T12:51:57;13.63;;;7.20;;
59950;SDS011;45812;53.540;9.774;2024-02-26T12:54:32;13.18;;;6.70;;
59950;SDS011;45812;53.540;9.774;2024-02-26T12:56:59;14.98;;;7.05;;
59950;SDS011;45812;53.540;9.774;2024-02-26T12:59:25;14.82;;;7.22;;
59950;SDS011;45812;53.540;9.774;2024-02-26T13:01:51;13.98;;;7.22;;
59950;SDS011;45812;53.540;9.774;2024-02-26T13:04:17;14.65;;;6.95;;
59950;SDS011;45812;53.540;9.774;2024-02-26T13:06:43;11.80;;;6.50;;
59950;SDS011;45812;53.540;9.774;2024-02-26T13:09:12;14.48;;;7.18;;
59950;SDS011;45812;53.540;9.774;2024-02-26T13:11:39;14.65;;;7.68;;
59950;SDS011;45812;53.540;9.774;2024-02-26T13:14:04;11.30;;;6.20;;
59950;SDS011;45812;53.540;9.774;2024-02-26T13:16:31;13.60;;;7.18;;
59950;SDS011;45812;53.540;9.774;2024-02-26T13:18:57;13.43;;;6.90;;
59950;SDS011;45812;53.540;9.774;2024-02-26T13:21:33;11.07;;;5.88;;
59950;SDS011;45812;53.540;9.774;2024-02-26T13:23:59;10.90;;;6.13;;
59950;SDS011;45812;53.540;9.774;2024-02-26T13:26:24;13.95;;;7.07;;
59950;SDS011;45812;53.540;9.774;2024-02-26T13:28:59;12.82;;;6.82;;
59950;SDS011;45812;53.540;9.774;2024-02-26T13:31:28;13.15;;;6.97;;
59950;SDS011;45812;53.540;9.774;2024-02-26T13:33:54;12.82;;;6.68;;
59950;SDS011;45812;53.540;9.774;2024-02-26T13:36:21;13.07;;;6.72;;
59950;SDS011;45812;53.540;9.774;2024-02-26T13:38:53;11.55;;;6.45;;
59950;SDS011;45812;53.540;9.774;2024-02-26T13:41:19;10.82;;;6.32;;
59950;SDS011;45812;53.540;9.774;2024-02-26T13:43:45;10.07;;;5.65;;
59950;SDS011;45812;53.540;9.774;2024-02-26T13:46:11;11.63;;;6.75;;
59950;SDS011;45812;53.540;9.774;2024-02-26T13:48:37;10.90;;;6.03;;
59950;SDS011;45812;53.540;9.774;2024-02-26T13:51:03;12.25;;;6.40;;
59950;SDS011;45812;53.540;9.774;2024-02-26T13:53:29;12.48;;;6.90;;
59950;SDS011;45812;53.540;9.774;2024-02-26T13:55:54;20.00;;;7.33;;
59950;SDS011;45812;53.540;9.774;2024-02-26T13:58:19;11.68;;;6.68;;
59950;SDS011;45812;53.540;9.774;2024-02-26T14:00:48;11.45;;;6.05;;
59950;SDS011;45812;53.540;9.774;2024-02-26T14:03:14;10.82;;;6.63;;
59950;SDS011;45812;53.540;9.774;2024-02-26T14:05:39;13.20;;;6.47;;
59950;SDS011;45812;53.540;9.774;2024-02-26T14:08:05;9.95;;;6.07;;
59950;SDS011;45812;53.540;9.774;2024-02-26T14:10:31;11.48;;;6.90;;
59950;SDS011;45812;53.540;9.774;2024-02-26T14:12:56;13.13;;;6.50;;
59950;SDS011;45812;53.540;9.774;2024-02-26T14:15:23;11.52;;;6.60;;
59950;SDS011;45812;53.540;9.774;2024-02-26T14:17:49;11.82;;;7.13;;
59950;SDS011;45812;53.540;9.774;2024-02-26T14:20:20;13.77;;;7.05;;
59950;SDS011;45812;53.540;9.774;2024-02-26T14:22:46;13.98;;;7.85;;
59950;SDS011;45812;53.540;9.774;2024-02-26T14:25:12;14.20;;;7.93;;
59950;SDS011;45812;53.540;9.774;2024-02-26T14:27:37;15.02;;;8.18;;
59950;SDS011;45812;53.540;9.774;2024-02-26T14:30:03;15.17;;;7.37;;
59950;SDS011;45812;53.540;9.774;2024-02-26T14:32:29;15.65;;;8.23;;
59950;SDS011;45812;53.540;9.774;2024-02-26T14:34:55;14.13;;;7.55;;
59950;SDS011;45812;53.540;9.774;2024-02-26T14:37:21;16.95;;;8.05;;
59950;SDS011;45812;53.540;9.774;2024-02-26T14:39:46;18.23;;;9.05;;
59950;SDS011;45812;53.540;9.774;2024-02-26T14:42:12;16.38;;;8.50;;